Time;durP1;ratioP1;P1;durP2;ratioP2;P2;SDS_P1;SDS_P2;PMS_P1;PMS_P2;Temp;Humidity;BMP_temperature;BMP_pressure;BME280_temperature;BME280_humidity;BME280_pressure;Samples;Min_cycle;Max_cycle;Signal;HPM_P1;HPM_P2
2023/08/09 08:05:11;;;;;;;5.85;1.45;;;;;;;17.05;72.91;96599.19;2082419;28;20562;-67
2023/08/09 08:07:30;;;;;;;5.88;1.70;;;;;;;17.20;72.61;96607.78;2084242;28;20550;-66
2023/08/09 08:09:56;;;;;;;9.07;2.05;;;;;;;17.20;72.21;96597.25;2081511;28;20566;-69
2023/08/09 08:10:58;;;;;;;3.25;1.40;;;;;;;17.27;72.11;96606.41;2079101;28;20205;-69
2023/08/09 08:13:20;;;;;;;3.22;1.58;;;;;;;17.12;72.41;96608.34;2084684;28;20565;-67
2023/08/09 08:14:22;;;;;;;5.40;1.85;;;;;;;17.12;72.52;96603.91;2082065;28;20341;-69
2023/08/09 08:15:24;;;;;;;3.90;1.70;;;;;;;17.20;72.34;96615.72;2083391;28;20626;-70
2023/08/09 08:16:25;;;;;;;5.32;2.05;;;;;;;17.28;71.95;96600.16;2078999;28;20283;-69
2023/08/09 08:17:27;;;;;;;5.38;2.15;;;;;;;17.36;71.68;96608.38;2079840;28;20194;-69
2023/08/09 08:18:28;;;;;;;3.75;1.20;;;;;;;17.47;71.86;96602.28;2082824;28;20306;-70
2023/08/09 08:19:30;;;;;;;4.07;1.58;;;;;;;17.57;71.74;96603.31;2083291;28;20247;-67
2023/08/09 08:20:32;;;;;;;3.80;1.70;;;;;;;17.67;71.68;96608.75;2083630;28;20193;-69
2023/08/09 08:21:34;;;;;;;6.78;2.10;;;;;;;17.78;71.50;96613.25;2082795;28;20192;-69
2023/08/09 08:22:35;;;;;;;5.60;1.60;;;;;;;17.74;71.30;96614.44;2081779;28;20278;-69
2023/08/09 08:23:37;;;;;;;5.35;1.70;;;;;;;17.64;71.45;96622.19;2081789;28;20204;-69
2023/08/09 08:26:10;;;;;;;5.20;1.63;;;;;;;17.57;71.90;96623.59;2085199;28;20561;-67
2023/08/09 08:28:36;;;;;;;3.45;1.55;;;;;;;17.61;72.55;96632.97;2091010;28;20558;-69
2023/08/09 08:31:07;;;;;;;3.92;1.63;;;;;;;17.61;72.35;96636.47;2089389;28;20559;-69
2023/08/09 08:32:10;;;;;;;8.32;2.25;;;;;;;17.54;72.37;96634.38;2091211;28;20283;-69
2023/08/09 08:33:12;;;;;;;4.43;2.05;;;;;;;17.63;72.49;96641.63;2089859;28;20204;-69
2023/08/09 08:34:15;;;;;;;3.35;1.38;;;;;;;17.76;72.22;96631.84;2090776;28;20667;-69
2023/08/09 08:37:09;;;;;;;5.57;2.40;;;;;;;17.76;72.64;96633.63;2098948;27;20570;-67
2023/08/09 08:54:16;;;;;;;7.57;1.60;;;;;;;17.26;74.05;96633.75;2090476;28;20543;-67
2023/08/09 08:56:48;;;;;;;4.40;1.60;;;;;;;17.20;74.22;96642.09;2082298;28;20564;-68
2023/08/09 08:59:25;;;;;;;6.75;1.65;;;;;;;17.19;74.28;96646.53;2083539;28;20548;-68
2023/08/09 09:01:57;;;;;;;4.90;1.30;;;;;;;17.10;74.39;96645.41;2084521;28;20936;-67
2023/08/09 09:02:59;;;;;;;6.22;1.52;;;;;;;17.17;74.61;96652.88;2078662;28;20673;-67
2023/08/09 09:05:30;;;;;;;3.28;1.70;;;;;;;17.30;73.93;96649.22;2059346;28;20574;-67
2023/08/09 09:06:32;;;;;;;6.70;1.98;;;;;;;17.31;73.81;96639.53;2056658;28;20290;-67
2023/08/09 09:07:34;;;;;;;2.50;1.23;;;;;;;17.50;73.87;96646.97;2057180;28;20202;-67
2023/08/09 09:08:42;;;;;;;4.13;1.77;;;;;;;17.27;73.32;96640.72;2057402;28;20626;-69
2023/08/09 09:09:56;;;;;;;5.68;1.90;;;;;;;17.19;73.85;96650.97;2055287;28;20325;-69
2023/08/09 09:10:59;;;;;;;4.50;1.80;;;;;;;17.15;74.10;96650.31;2054236;28;20659;-69
2023/08/09 09:13:35;;;;;;;3.92;1.40;;;;;;;17.24;74.42;96654.97;2085130;28;20548;-67
2023/08/09 09:14:37;;;;;;;11.00;1.67;;;;;;;17.30;74.39;96651.88;2082420;28;20196;-67
2023/08/09 09:17:26;;;;;;;3.45;1.73;;;;;;;17.07;74.86;96652.69;2083649;28;20562;-68
2023/08/09 09:20:10;;;;;;;7.38;1.80;;;;;;;17.01;74.86;96646.03;2075081;28;20559;-66
2023/08/09 09:28:18;;;;;;;6.53;2.10;;;;;;;17.07;75.24;96652.69;2100580;27;21057;-69
2023/08/09 09:30:57;;;;;;;9.52;1.73;;;;;;;17.23;74.99;96648.00;2087080;28;20576;-67
2023/08/09 09:31:59;;;;;;;8.00;1.73;;;;;;;17.28;74.79;96653.78;2082971;28;20244;-67
2023/08/09 09:33:04;;;;;;;7.75;1.73;;;;;;;17.44;74.66;96652.69;2082310;28;20280;-68
2023/08/09 09:34:07;;;;;;;5.93;2.10;;;;;;;17.53;74.43;96656.44;2080758;28;20228;-67
2023/08/09 09:35:17;;;;;;;9.20;2.13;;;;;;;17.62;74.49;96655.78;2067288;28;20934;-67
2023/08/09 09:36:18;;;;;;;6.32;1.90;;;;;;;17.69;74.06;96654.38;2063836;28;20205;-67
2023/08/09 09:37:28;;;;;;;7.22;1.92;;;;;;;17.82;74.06;96656.97;2066369;28;20209;-67
2023/08/09 09:38:30;;;;;;;10.93;2.03;;;;;;;17.74;74.20;96659.34;2065787;28;20219;-68
2023/08/09 09:39:31;;;;;;;8.30;1.80;;;;;;;17.82;73.82;96661.41;2065255;28;20570;-66
2023/08/09 09:40:35;;;;;;;5.15;1.65;;;;;;;17.80;73.92;96658.84;2065287;28;20253;-69
2023/08/09 09:43:13;;;;;;;3.83;1.58;;;;;;;17.86;73.43;96666.31;2118297;27;21082;-67
2023/08/09 09:44:19;;;;;;;3.80;1.85;;;;;;;17.79;73.58;96662.47;2116860;28;20197;-67
2023/08/09 09:45:23;;;;;;;12.63;2.28;;;;;;;17.95;73.64;96665.69;2100267;27;20273;-67
2023/08/09 09:46:25;;;;;;;5.03;1.77;;;;;;;17.94;73.40;96658.72;2107130;28;20773;-68
2023/08/09 09:47:38;;;;;;;6.30;2.15;;;;;;;17.87;73.19;96659.25;2105294;28;20199;-67
2023/08/09 09:50:36;;;;;;;6.90;1.70;;;;;;;17.74;73.41;96661.97;2083200;28;20583;-67
2023/08/09 09:51:42;;;;;;;7.82;2.20;;;;;;;17.72;73.54;96650.66;2090085;28;20192;-68
2023/08/09 09:54:37;;;;;;;13.05;2.22;;;;;;;17.49;74.51;96663.75;2084645;28;21077;-66
2023/08/09 09:55:40;;;;;;;8.07;1.88;;;;;;;17.39;74.67;96668.00;2081247;28;20197;-67
2023/08/09 09:58:41;;;;;;;3.63;1.73;;;;;;;17.28;75.32;96669.63;2092205;27;20583;-69
2023/08/09 10:13:03;;;;;;;7.22;1.95;;;;;;;16.93;78.16;96674.75;2102476;27;20552;-69
2023/08/09 10:14:08;;;;;;;6.57;2.42;;;;;;;16.98;77.93;96672.63;2094331;28;20189;-68
2023/08/09 10:15:13;;;;;;;9.65;2.72;;;;;;;17.05;77.62;96665.13;2083415;28;20216;-69
2023/08/09 10:16:19;;;;;;;12.50;2.10;;;;;;;17.20;77.12;96673.75;2079883;28;20197;-69
2023/08/09 10:17:21;;;;;;;5.18;1.85;;;;;;;17.25;76.72;96669.81;2078537;28;20201;-69
2023/08/09 10:18:38;;;;;;;9.40;2.38;;;;;;;17.36;76.12;96674.34;2076261;28;20860;-69
2023/08/09 10:19:43;;;;;;;5.60;1.90;;;;;;;17.50;75.78;96667.25;2077496;28;20197;-69
2023/08/09 10:20:50;;;;;;;10.40;2.20;;;;;;;17.62;75.54;96676.88;2073903;28;20201;-69
2023/08/09 10:21:54;;;;;;;4.72;1.77;;;;;;;17.85;75.14;96677.00;2074860;28;20193;-69
2023/08/09 10:22:59;;;;;;;9.07;2.30;;;;;;;17.89;74.83;96679.31;2075147;28;20289;-69
2023/08/09 10:24:14;;;;;;;12.38;2.13;;;;;;;17.90;74.75;96683.66;2072039;28;20231;-69
2023/08/09 10:25:15;;;;;;;10.80;1.75;;;;;;;17.92;74.76;96681.72;2073642;28;20230;-69
2023/08/09 10:26:17;;;;;;;5.93;2.00;;;;;;;18.06;74.82;96680.75;2070061;28;20199;-69
2023/08/09 10:27:49;;;;;;;5.82;2.08;;;;;;;18.33;73.98;96681.44;2068690;28;20296;-70
2023/08/09 10:28:50;;;;;;;8.80;2.10;;;;;;;18.44;73.74;96670.88;2060432;28;20205;-69
2023/08/09 10:30:05;;;;;;;4.07;1.90;;;;;;;18.46;72.75;96670.78;2071373;28;20393;-69
2023/08/09 10:31:07;;;;;;;6.03;2.35;;;;;;;18.54;73.20;96671.03;2070180;28;20572;-69
2023/08/09 10:32:09;;;;;;;5.03;1.50;;;;;;;18.57;72.77;96674.25;2067036;28;20224;-70
2023/08/09 10:33:11;;;;;;;4.50;2.22;;;;;;;18.50;73.15;96666.91;2067387;28;20201;-70
2023/08/09 10:34:13;;;;;;;7.60;1.88;;;;;;;18.46;72.97;96676.06;2075543;28;20193;-70
2023/08/09 10:35:16;;;;;;;6.30;2.22;;;;;;;18.50;73.16;96678.34;2073095;28;20233;-69
2023/08/09 10:36:32;;;;;;;6.40;2.00;;;;;;;18.41;73.22;96673.75;2071167;28;20236;-69
2023/08/09 10:37:34;;;;;;;7.80;2.20;;;;;;;18.40;73.90;96669.44;2073615;28;20192;-69
2023/08/09 10:38:35;;;;;;;7.47;1.85;;;;;;;18.27;73.79;96678.28;2075074;28;20528;-70
2023/08/09 10:40:18;;;;;;;5.35;1.73;;;;;;;18.39;73.74;96670.41;2072745;28;20641;-69
2023/08/09 10:41:26;;;;;;;6.65;1.48;;;;;;;18.42;73.84;96676.31;2072404;28;20596;-69
2023/08/09 10:42:27;;;;;;;5.45;1.73;;;;;;;18.42;73.73;96670.16;2069214;28;20558;-69
2023/08/09 10:43:30;;;;;;;4.05;1.67;;;;;;;18.52;73.74;96668.47;2072272;28;20208;-69
2023/08/09 10:44:43;;;;;;;5.72;1.67;;;;;;;18.61;73.32;96669.59;2067702;28;20341;-69
2023/08/09 10:45:46;;;;;;;8.57;1.88;;;;;;;18.76;73.08;96671.03;2072402;28;20222;-69
2023/08/09 10:46:48;;;;;;;5.40;1.70;;;;;;;18.92;73.12;96681.31;2069132;28;20201;-70
2023/08/09 10:47:50;;;;;;;5.25;1.55;;;;;;;18.93;71.74;96669.78;2066289;28;20238;-70
2023/08/09 10:48:54;;;;;;;5.18;1.80;;;;;;;18.99;72.11;96679.03;2071170;28;20227;-70
2023/08/09 10:49:55;;;;;;;6.38;1.35;;;;;;;19.16;71.61;96666.28;2069369;28;20304;-70
2023/08/09 10:51:21;;;;;;;5.82;1.60;;;;;;;19.03;71.83;96677.84;2075126;28;20194;-70
2023/08/09 10:52:46;;;;;;;7.57;2.20;;;;;;;19.16;71.13;96677.72;2067533;28;20194;-70
2023/08/09 10:54:01;;;;;;;8.15;1.77;;;;;;;19.29;70.85;96680.22;2073319;28;20193;-70
2023/08/09 10:55:18;;;;;;;7.20;1.40;;;;;;;19.37;70.79;96680.44;2068033;28;20751;-69
2023/08/09 10:56:41;;;;;;;4.18;2.05;;;;;;;19.51;71.09;96681.16;2072542;28;20856;-70
2023/08/09 10:57:44;;;;;;;4.28;1.40;;;;;;;19.51;70.82;96675.88;2074932;28;20300;-71
2023/08/09 10:58:45;;;;;;;11.23;1.70;;;;;;;19.69;70.88;96670.88;2072555;28;20198;-70
2023/08/09 10:59:57;;;;;;;5.20;1.75;;;;;;;19.80;70.19;96677.97;2069368;28;20247;-69
2023/08/09 11:00:59;;;;;;;6.90;1.58;;;;;;;19.89;70.37;96667.47;2073783;28;20271;-70
2023/08/09 11:02:01;;;;;;;6.85;1.42;;;;;;;19.96;69.97;96674.91;2070768;28;20288;-70
2023/08/09 11:03:04;;;;;;;7.00;2.53;;;;;;;19.87;70.14;96672.06;2071961;28;20324;-71
2023/08/09 11:04:07;;;;;;;4.10;1.30;;;;;;;19.73;70.60;96677.59;2072208;28;20201;-70
2023/08/09 11:05:12;;;;;;;4.47;1.50;;;;;;;19.58;70.64;96669.13;2071324;28;20268;-71
2023/08/09 11:06:14;;;;;;;12.18;1.70;;;;;;;19.51;70.93;96673.22;2065123;28;20248;-70
2023/08/09 11:07:19;;;;;;;7.47;2.10;;;;;;;19.21;70.17;96675.53;2072428;28;20198;-70
2023/08/09 11:08:21;;;;;;;4.75;1.70;;;;;;;19.18;70.50;96677.59;2068877;28;20287;-70
2023/08/09 11:09:23;;;;;;;7.93;1.50;;;;;;;19.42;70.68;96674.78;2064832;28;20743;-70
2023/08/09 11:10:33;;;;;;;7.90;1.50;;;;;;;19.56;70.46;96676.34;2065211;28;20276;-70
2023/08/09 11:11:36;;;;;;;3.13;1.52;;;;;;;19.50;70.24;96676.81;2072013;28;20203;-70
2023/08/09 11:12:42;;;;;;;3.55;1.50;;;;;;;19.30;70.68;96670.47;2070739;28;20229;-70
2023/08/09 11:13:43;;;;;;;10.23;1.58;;;;;;;19.28;71.15;96667.94;2071265;28;20204;-71
2023/08/09 11:14:57;;;;;;;4.82;1.60;;;;;;;19.19;71.28;96674.81;2072875;28;20278;-70
2023/08/09 11:16:06;;;;;;;6.20;1.67;;;;;;;19.34;71.84;96678.06;2072997;28;20198;-71
2023/08/09 11:17:12;;;;;;;4.80;1.30;;;;;;;19.19;71.98;96676.63;2073844;28;20216;-70
2023/08/09 11:18:14;;;;;;;6.28;1.67;;;;;;;19.05;71.64;96669.78;2068505;28;20195;-70
2023/08/09 11:19:21;;;;;;;4.00;1.30;;;;;;;19.20;71.66;96676.50;2067974;28;20202;-71
2023/08/09 11:20:36;;;;;;;5.97;1.60;;;;;;;19.18;71.69;96673.13;2068591;28;20226;-70
2023/08/09 11:21:42;;;;;;;4.68;1.50;;;;;;;18.96;72.74;96671.34;2069191;28;20726;-70
2023/08/09 11:22:56;;;;;;;6.60;1.52;;;;;;;18.94;74.26;96673.25;2072159;28;20248;-70
2023/08/09 11:23:58;;;;;;;4.93;1.65;;;;;;;18.75;77.50;96672.03;2066203;28;20241;-70
2023/08/09 11:24:59;;;;;;;5.72;1.80;;;;;;;18.98;78.14;96673.84;2064111;28;20233;-70
2023/08/09 11:26:00;;;;;;;7.97;1.90;;;;;;;18.99;77.00;96675.56;2066005;28;20209;-71
2023/08/09 11:27:03;;;;;;;4.68;1.73;;;;;;;19.15;76.65;96676.03;2066717;28;20208;-71
2023/08/09 11:28:10;;;;;;;5.47;2.10;;;;;;;19.31;76.00;96669.50;2068292;28;20285;-71
2023/08/09 11:29:12;;;;;;;5.30;1.63;;;;;;;19.56;75.01;96666.56;2062909;28;20198;-70
2023/08/09 11:30:13;;;;;;;7.40;1.90;;;;;;;19.64;73.98;96673.91;2064499;28;20228;-71
2023/08/09 11:31:15;;;;;;;5.63;1.83;;;;;;;20.02;73.63;96671.75;2069025;28;20259;-70
2023/08/09 11:32:19;;;;;;;6.88;1.95;;;;;;;19.94;71.32;96661.78;2069888;28;20198;-70
2023/08/09 11:33:21;;;;;;;3.58;1.60;;;;;;;20.09;71.32;96666.78;2066900;28;20245;-70
2023/08/09 11:34:23;;;;;;;8.18;1.88;;;;;;;19.84;70.97;96653.75;2063952;28;20201;-70
2023/08/09 11:35:29;;;;;;;3.40;1.67;;;;;;;19.72;70.88;96658.22;2064601;28;20314;-70
2023/08/09 11:36:31;;;;;;;8.25;1.85;;;;;;;20.00;71.13;96655.16;2062098;28;20195;-70
2023/08/09 11:37:32;;;;;;;4.75;1.60;;;;;;;19.99;70.79;96656.13;2062760;28;20604;-70
2023/08/09 11:38:34;;;;;;;7.88;2.25;;;;;;;19.99;71.26;96661.44;2065082;28;20704;-70
2023/08/09 11:39:35;;;;;;;5.18;2.22;;;;;;;20.16;71.17;96662.66;2064767;28;20253;-70
2023/08/09 11:40:50;;;;;;;3.78;1.63;;;;;;;20.01;70.24;96668.28;2072428;28;20630;-70
2023/08/09 11:41:56;;;;;;;7.10;1.65;;;;;;;19.99;70.40;96667.56;2071972;28;20524;-70
2023/08/09 11:42:58;;;;;;;4.32;1.73;;;;;;;19.89;70.06;96670.13;2071029;28;20189;-70
2023/08/09 11:44:03;;;;;;;4.25;1.77;;;;;;;20.01;69.97;96670.06;2074037;28;20189;-70
2023/08/09 11:45:05;;;;;;;6.13;1.60;;;;;;;20.20;69.90;96666.72;2075330;28;20237;-70
2023/08/09 11:46:07;;;;;;;5.80;1.50;;;;;;;20.01;69.02;96667.41;2073798;28;20641;-71
2023/08/09 11:47:10;;;;;;;5.32;1.80;;;;;;;20.05;69.28;96664.41;2073081;28;20256;-70
2023/08/09 11:48:31;;;;;;;6.38;1.60;;;;;;;20.13;69.34;96665.59;2075637;28;20199;-70
2023/08/09 11:49:33;;;;;;;6.88;1.65;;;;;;;20.00;68.91;96666.59;2072665;28;20209;-69
2023/08/09 11:50:35;;;;;;;6.20;1.73;;;;;;;20.02;69.23;96669.09;2073000;28;20197;-71
2023/08/09 11:51:37;;;;;;;5.05;2.55;;;;;;;19.84;69.14;96668.81;2074270;28;20198;-70
2023/08/09 11:52:39;;;;;;;8.75;1.77;;;;;;;19.73;69.76;96677.59;2073092;28;20217;-70
2023/08/09 11:53:42;;;;;;;3.88;1.50;;;;;;;19.66;70.11;96660.53;2071913;28;20216;-70
2023/08/09 11:54:44;;;;;;;2.95;1.40;;;;;;;19.69;70.21;96679.69;2074227;28;20284;-70
2023/08/09 11:55:46;;;;;;;9.45;1.55;;;;;;;19.74;68.99;96677.50;2074116;28;20201;-71
2023/08/09 11:56:48;;;;;;;5.18;1.52;;;;;;;19.71;68.77;96674.25;2074448;28;20204;-70
2023/08/09 11:57:50;;;;;;;5.50;1.55;;;;;;;19.88;68.31;96667.59;2073324;28;20216;-70
2023/08/09 11:58:54;;;;;;;6.45;1.70;;;;;;;19.93;68.15;96677.81;2072608;28;20221;-70
2023/08/09 11:59:58;;;;;;;4.18;1.98;;;;;;;19.82;67.60;96673.38;2070011;28;20241;-70
2023/08/09 12:01:20;;;;;;;6.05;1.83;;;;;;;19.90;67.83;96676.28;2071533;28;20236;-67
2023/08/09 12:02:27;;;;;;;3.25;1.52;;;;;;;19.73;67.01;96665.22;2070399;28;20203;-70
2023/08/09 12:03:28;;;;;;;4.10;1.70;;;;;;;19.54;68.45;96680.91;2071757;28;20825;-70
2023/08/09 12:04:30;;;;;;;12.00;1.90;;;;;;;19.96;68.52;96680.22;2072315;28;20208;-70
2023/08/09 12:05:32;;;;;;;2.47;1.40;;;;;;;19.82;67.96;96676.91;2075195;28;20205;-70
2023/08/09 12:06:55;;;;;;;6.05;2.38;;;;;;;19.85;68.06;96676.63;2075002;28;20198;-71
2023/08/09 12:08:03;;;;;;;4.93;1.75;;;;;;;19.99;68.16;96677.31;2071459;28;20198;-71
2023/08/09 12:09:35;;;;;;;4.30;1.90;;;;;;;20.01;68.40;96683.31;2072218;28;20208;-72
2023/08/09 12:10:41;;;;;;;9.52;4.15;;;;;;;19.78;68.57;96691.31;2070581;28;20248;-71
2023/08/09 12:11:48;;;;;;;11.63;6.63;;;;;;;19.84;69.17;96687.38;2072859;28;20197;-71
2023/08/09 12:12:50;;;;;;;7.43;2.78;;;;;;;19.84;69.22;96676.78;2072867;28;20244;-71
2023/08/09 12:13:52;;;;;;;14.50;3.80;;;;;;;19.90;69.30;96685.06;2070820;28;20222;-71
2023/08/09 12:14:53;;;;;;;8.55;2.80;;;;;;;19.96;68.87;96685.50;2067280;28;20225;-71
2023/08/09 12:15:56;;;;;;;4.35;2.25;;;;;;;20.07;68.51;96680.16;2064236;28;20679;-71
2023/08/09 12:16:57;;;;;;;7.28;1.95;;;;;;;20.14;68.18;96691.13;2065925;28;20202;-71
2023/08/09 12:17:59;;;;;;;9.23;1.60;;;;;;;20.25;67.90;96688.41;2067048;28;20649;-71
2023/08/09 12:19:01;;;;;;;4.40;1.83;;;;;;;20.20;67.69;96694.09;2065682;28;20263;-71
2023/08/09 12:20:06;;;;;;;4.28;1.70;;;;;;;20.13;67.46;96692.09;2064411;28;20218;-71
2023/08/09 12:21:08;;;;;;;5.28;2.40;;;;;;;19.95;67.74;96692.63;2065103;28;20209;-71
2023/08/09 12:22:10;;;;;;;7.15;2.88;;;;;;;19.89;67.92;96699.25;2061697;28;20268;-71
2023/08/09 12:23:12;;;;;;;5.00;1.88;;;;;;;19.95;67.63;96686.47;2064071;28;20193;-70
2023/08/09 12:24:14;;;;;;;5.53;2.03;;;;;;;19.97;67.88;96685.41;2066891;28;20713;-70
2023/08/09 12:25:15;;;;;;;4.38;1.80;;;;;;;20.14;67.99;96701.72;2063996;28;20231;-70
2023/08/09 12:26:17;;;;;;;6.45;1.92;;;;;;;20.34;67.91;96700.03;2062366;28;20716;-70
2023/08/09 12:27:21;;;;;;;3.97;1.50;;;;;;;20.21;67.17;96689.63;2061768;28;20444;-71
2023/08/09 12:28:23;;;;;;;7.30;1.80;;;;;;;20.42;66.49;96699.41;2066649;28;20267;-70
2023/08/09 12:29:24;;;;;;;3.65;1.75;;;;;;;20.55;66.70;96702.72;2066228;28;20288;-71
2023/08/09 12:30:26;;;;;;;4.38;1.65;;;;;;;20.54;66.32;96698.38;2062578;28;20230;-70
2023/08/09 12:31:28;;;;;;;4.22;1.60;;;;;;;20.77;66.42;96700.94;2068305;28;20877;-71
2023/08/09 12:32:29;;;;;;;5.20;1.92;;;;;;;20.69;65.32;96694.41;2067142;28;20611;-70
2023/08/09 12:33:31;;;;;;;6.63;1.50;;;;;;;20.79;65.47;96702.47;2064829;28;20838;-70
2023/08/09 12:34:33;;;;;;;3.40;1.45;;;;;;;20.83;64.73;96697.75;2061698;28;20613;-70
2023/08/09 12:35:34;;;;;;;6.10;1.60;;;;;;;20.78;64.75;96695.47;2067357;28;20289;-70
2023/08/09 12:36:36;;;;;;;6.28;1.88;;;;;;;20.63;65.12;96702.06;2062200;28;20197;-70
2023/08/09 12:37:37;;;;;;;3.83;1.50;;;;;;;20.75;64.96;96702.84;2062668;28;20202;-70
2023/08/09 12:38:39;;;;;;;2.65;1.40;;;;;;;20.48;64.98;96704.19;2066520;28;20244;-71
2023/08/09 12:39:40;;;;;;;4.00;1.65;;;;;;;20.47;64.79;96705.19;2065641;28;20198;-70
2023/08/09 12:40:42;;;;;;;3.88;2.05;;;;;;;20.42;64.89;96702.06;2065324;28;20256;-70
2023/08/09 12:41:43;;;;;;;5.47;1.55;;;;;;;20.28;65.08;96705.84;2066809;28;20248;-70
2023/08/09 12:42:45;;;;;;;7.93;1.92;;;;;;;20.09;65.95;96704.75;2068820;28;20213;-70
2023/08/09 12:43:47;;;;;;;5.35;1.73;;;;;;;20.19;66.50;96707.50;2067336;28;20207;-70
2023/08/09 12:44:48;;;;;;;4.70;1.70;;;;;;;20.31;66.79;96706.44;2065226;28;20199;-71
2023/08/09 12:45:50;;;;;;;7.25;1.85;;;;;;;20.23;67.45;96712.38;2063983;28;20208;-70
2023/08/09 12:46:52;;;;;;;4.07;1.50;;;;;;;20.22;66.94;96710.69;2061933;28;20203;-71
2023/08/09 12:47:54;;;;;;;10.65;1.30;;;;;;;20.29;66.92;96711.06;2066057;28;20585;-70
2023/08/09 12:48:55;;;;;;;8.90;1.52;;;;;;;20.17;66.84;96712.06;2063235;28;20198;-71
2023/08/09 12:49:57;;;;;;;4.22;1.90;;;;;;;20.22;66.87;96707.22;2063247;28;20276;-71
2023/08/09 12:50:58;;;;;;;4.25;1.70;;;;;;;20.45;66.32;96712.41;2064098;28;20197;-70
2023/08/09 12:52:01;;;;;;;4.57;1.70;;;;;;;20.39;66.80;96705.81;2063679;28;20193;-70
2023/08/09 12:53:03;;;;;;;6.07;2.17;;;;;;;20.32;66.41;96705.47;2065267;28;20902;-70
2023/08/09 12:54:10;;;;;;;3.92;1.30;;;;;;;20.21;67.31;96698.44;2061718;28;20688;-70
2023/08/09 12:55:11;;;;;;;3.42;1.65;;;;;;;20.19;67.75;96708.31;2066162;28;20284;-70
2023/08/09 12:56:14;;;;;;;5.65;1.50;;;;;;;20.27;67.31;96710.34;2066044;28;20198;-70
2023/08/09 12:57:15;;;;;;;6.88;2.20;;;;;;;20.53;67.05;96712.59;2067670;28;20205;-70
2023/08/09 12:58:17;;;;;;;4.57;1.70;;;;;;;20.42;67.21;96707.34;2063900;28;20260;-71
2023/08/09 12:59:18;;;;;;;9.02;2.30;;;;;;;20.44;66.37;96708.91;2066123;28;20745;-68
2023/08/09 13:00:20;;;;;;;7.03;2.35;;;;;;;20.42;66.93;96704.72;2063814;28;20728;-68
2023/08/09 13:01:22;;;;;;;3.25;1.40;;;;;;;20.52;66.54;96719.72;2065477;28;20207;-68
2023/08/09 13:02:23;;;;;;;3.50;1.73;;;;;;;20.54;66.75;96723.09;2064144;28;20213;-68
2023/08/09 13:03:25;;;;;;;13.93;1.77;;;;;;;20.61;66.00;96719.91;2063578;28;20262;-68
2023/08/09 13:04:26;;;;;;;7.03;1.60;;;;;;;20.82;65.57;96715.50;2064550;28;20194;-69
2023/08/09 13:05:28;;;;;;;4.40;1.73;;;;;;;20.83;65.87;96725.13;2065992;28;20229;-68
2023/08/09 13:06:30;;;;;;;4.10;2.10;;;;;;;20.90;65.49;96716.63;2066977;28;20206;-68
2023/08/09 13:07:33;;;;;;;4.03;1.58;;;;;;;20.66;65.83;96726.53;2066714;28;20210;-68
2023/08/09 13:08:35;;;;;;;4.20;1.98;;;;;;;20.74;66.14;96720.59;2065082;28;20205;-68
2023/08/09 13:09:37;;;;;;;4.78;1.42;;;;;;;20.65;66.27;96732.78;2062069;28;20202;-68
2023/08/09 13:10:38;;;;;;;2.85;1.48;;;;;;;20.63;66.21;96723.28;2062569;28;20245;-68
2023/08/09 13:11:40;;;;;;;4.50;1.65;;;;;;;20.54;66.40;96714.28;2067019;28;20227;-69
2023/08/09 13:12:42;;;;;;;4.90;1.50;;;;;;;20.50;65.30;96723.47;2061932;28;20365;-68
2023/08/09 13:13:43;;;;;;;4.53;1.80;;;;;;;20.64;64.95;96722.31;2064883;28;20203;-69
2023/08/09 13:14:45;;;;;;;5.05;1.60;;;;;;;20.47;65.13;96723.75;2063914;28;20218;-68
2023/08/09 13:15:46;;;;;;;7.03;1.80;;;;;;;20.41;64.83;96725.09;2066000;28;20886;-68
2023/08/09 13:16:48;;;;;;;10.35;1.65;;;;;;;20.47;65.11;96723.75;2066075;28;20248;-69
2023/08/09 13:17:49;;;;;;;4.35;1.80;;;;;;;20.27;65.13;96723.59;2062315;28;20233;-68
2023/08/09 13:18:50;;;;;;;4.53;1.60;;;;;;;20.28;65.31;96721.75;2064001;28;20681;-68
2023/08/09 13:19:52;;;;;;;4.57;2.00;;;;;;;20.14;65.98;96722.94;2062979;28;20254;-68
2023/08/09 13:20:53;;;;;;;4.95;1.70;;;;;;;20.25;65.34;96716.72;2064244;28;20230;-68
2023/08/09 13:21:55;;;;;;;6.50;1.60;;;;;;;20.34;65.32;96718.59;2066014;28;20236;-70
2023/08/09 13:22:56;;;;;;;3.08;1.63;;;;;;;20.74;64.80;96727.72;2062141;28;20201;-69
2023/08/09 13:23:58;;;;;;;7.60;1.60;;;;;;;20.65;64.80;96732.78;2063762;28;20194;-70
2023/08/09 13:24:59;;;;;;;6.70;2.20;;;;;;;20.48;64.25;96722.75;2063932;28;20256;-71
2023/08/09 13:26:01;;;;;;;4.55;1.67;;;;;;;20.79;64.05;96736.16;2063672;28;20253;-70
2023/08/09 13:27:03;;;;;;;7.65;2.20;;;;;;;20.96;63.53;96727.59;2061941;28;20269;-70
2023/08/09 13:28:06;;;;;;;5.05;1.60;;;;;;;20.96;63.64;96730.25;2062099;28;20272;-70
2023/08/09 13:29:07;;;;;;;5.25;1.75;;;;;;;21.21;63.84;96726.28;2062301;28;20199;-69
2023/08/09 13:30:09;;;;;;;2.50;1.40;;;;;;;21.58;63.69;96726.75;2065264;28;20607;-69
2023/08/09 13:31:11;;;;;;;6.18;1.42;;;;;;;21.59;63.14;96721.28;2063423;28;20650;-70
2023/08/09 13:32:13;;;;;;;4.63;1.60;;;;;;;21.20;62.88;96731.75;2064608;28;20209;-70
2023/08/09 13:33:14;;;;;;;3.60;1.80;;;;;;;20.97;63.62;96718.63;2063221;28;20205;-70
2023/08/09 13:34:16;;;;;;;3.83;1.45;;;;;;;21.38;62.94;96716.00;2062496;28;20219;-70
2023/08/09 13:35:20;;;;;;;3.45;1.60;;;;;;;21.27;63.17;96724.94;2061278;28;20652;-70
2023/08/09 13:36:21;;;;;;;7.95;1.60;;;;;;;21.57;63.22;96728.56;2063058;28;20201;-70
2023/08/09 13:37:23;;;;;;;6.18;1.35;;;;;;;21.56;61.92;96724.22;2064664;28;20236;-70
2023/08/09 13:38:26;;;;;;;8.45;1.65;;;;;;;21.78;61.94;96727.66;2062408;28;20202;-70
2023/08/09 13:39:30;;;;;;;7.38;1.52;;;;;;;21.82;62.24;96729.03;2062843;28;20605;-70
2023/08/09 13:40:32;;;;;;;9.27;2.15;;;;;;;21.31;62.36;96723.69;2069448;28;20742;-70
2023/08/09 13:41:34;;;;;;;8.13;1.20;;;;;;;21.37;63.02;96731.13;2069749;28;20198;-70
2023/08/09 13:42:36;;;;;;;9.70;1.88;;;;;;;21.41;62.52;96731.69;2074456;28;20245;-70
2023/08/09 13:43:37;;;;;;;5.78;1.63;;;;;;;21.33;61.83;96727.06;2073547;28;20736;-70
2023/08/09 13:44:39;;;;;;;5.05;1.52;;;;;;;21.39;61.98;96720.34;2074995;28;20197;-69
2023/08/09 13:45:40;;;;;;;3.92;1.60;;;;;;;21.89;61.98;96727.53;2074970;28;20362;-70
2023/08/09 13:46:41;;;;;;;9.30;1.80;;;;;;;21.99;60.76;96722.19;2074843;28;20252;-70
2023/08/09 13:47:43;;;;;;;4.10;1.80;;;;;;;21.88;61.07;96731.16;2071685;28;20201;-70
2023/08/09 13:48:46;;;;;;;2.78;1.25;;;;;;;21.59;61.07;96718.63;2070217;28;20689;-70
2023/08/09 13:49:48;;;;;;;4.05;1.30;;;;;;;21.66;60.84;96724.25;2076323;28;20197;-69
2023/08/09 13:50:49;;;;;;;6.30;1.70;;;;;;;22.14;60.37;96722.66;2073579;28;20193;-69
2023/08/09 13:51:51;;;;;;;3.28;1.80;;;;;;;21.96;60.60;96718.00;2072501;28;20205;-70
2023/08/09 13:52:52;;;;;;;3.80;1.30;;;;;;;21.64;61.79;96723.56;2077076;28;20254;-70
2023/08/09 13:53:54;;;;;;;3.85;1.65;;;;;;;21.62;61.07;96709.56;2073465;28;20621;-69
2023/08/09 13:54:56;;;;;;;3.80;2.00;;;;;;;22.00;61.31;96723.88;2071447;28;20237;-69
2023/08/09 13:55:57;;;;;;;5.20;1.92;;;;;;;22.14;59.65;96718.19;2074047;28;20205;-70
2023/08/09 13:56:59;;;;;;;7.50;2.47;;;;;;;22.41;58.96;96721.13;2072075;28;20248;-70
2023/08/09 13:58:00;;;;;;;7.28;1.65;;;;;;;21.95;59.86;96716.34;2072034;28;20192;-70
2023/08/09 13:59:02;;;;;;;4.82;1.70;;;;;;;21.91;59.57;96722.06;2070569;28;20720;-70
2023/08/09 14:00:07;;;;;;;5.28;1.70;;;;;;;21.79;60.20;96713.38;2068486;28;20566;-69
2023/08/09 14:01:09;;;;;;;2.67;1.40;;;;;;;22.00;60.46;96731.88;2075147;28;20292;-70
2023/08/09 14:02:11;;;;;;;3.65;1.60;;;;;;;21.93;60.68;96723.59;2075002;28;20193;-70
2023/08/09 14:03:12;;;;;;;11.63;1.92;;;;;;;22.48;58.93;96727.59;2074006;28;20193;-71
2023/08/09 14:04:17;;;;;;;3.13;1.50;;;;;;;22.68;58.70;96723.09;2071661;28;20551;-70
2023/08/09 14:05:18;;;;;;;3.25;1.40;;;;;;;22.46;59.32;96719.75;2069048;28;20832;-70
2023/08/09 14:06:20;;;;;;;7.22;1.58;;;;;;;22.70;59.09;96726.44;2071168;28;20888;-70
2023/08/09 14:07:21;;;;;;;6.82;1.88;;;;;;;22.81;58.46;96734.25;2072163;28;20223;-70
2023/08/09 14:08:23;;;;;;;3.92;1.60;;;;;;;22.50;58.70;96722.97;2072094;28;20380;-71
2023/08/09 14:09:24;;;;;;;5.35;1.75;;;;;;;22.49;58.99;96726.59;2072882;28;20266;-70
2023/08/09 14:10:26;;;;;;;4.65;1.80;;;;;;;22.14;59.54;96723.50;2074400;28;20220;-70
2023/08/09 14:11:28;;;;;;;4.10;1.80;;;;;;;22.83;58.99;96723.47;2071021;28;20555;-70
2023/08/09 14:12:29;;;;;;;8.40;1.30;;;;;;;22.69;59.42;96726.56;2070534;28;20230;-70